Matachewan, Canada
Current Conditions -  °F | °C
As of 10:16 AM on Saturday 25 Oct 2014 (Local Time) from CYXR Reporting Station
Overcast Overcast  
Wind Chill: 43°   Ceiling: 2000
Heat Index: 48°   Visibility: 9mi
Dew Point: 46°   Wind: 14mph
Humidity: 93%   Direction: 200°SSW
Pressure: 29.43"   Gusts: NA
Location:  48°N, 80.65°W
Report Text: CYXR 251416Z AUTO 20012KT 9SM FEW011 BKN020 OVC026 09/08 A2943 RMK SLP973 DENSITY ALT 800FT
Loading
Personal Weather Stations






























Interactive Weather Map
Tropical Storm Tracking
New forecast layout! Learn more

10-Day Weather Forecast

Advertisements
Track Severe Weather on mobile